sensor_id;sensor_type;location;lat;lon;timestamp;P1;durP1;ratioP1;P2;durP2;ratioP2
68680;SDS011;55836;49.858;6.756;2022-12-31T00:01:13;1.30;;;1.20;;
68680;SDS011;55836;49.858;6.756;2022-12-31T00:03:40;1.17;;;1.07;;
68680;SDS011;55836;49.858;6.756;2022-12-31T00:08:38;0.80;;;0.80;;
68680;SDS011;55836;49.858;6.756;2022-12-31T00:11:04;1.83;;;1.10;;
68680;SDS011;55836;49.858;6.756;2022-12-31T00:13:30;0.77;;;0.77;;
68680;SDS011;55836;49.858;6.756;2022-12-31T00:16:06;1.97;;;0.60;;
68680;SDS011;55836;49.858;6.756;2022-12-31T00:18:32;0.60;;;0.60;;
68680;SDS011;55836;49.858;6.756;2022-12-31T00:20:58;1.87;;;0.70;;
68680;SDS011;55836;49.858;6.756;2022-12-31T00:23:26;0.50;;;0.50;;
68680;SDS011;55836;49.858;6.756;2022-12-31T00:25:52;0.63;;;0.63;;
68680;SDS011;55836;49.858;6.756;2022-12-31T00:28:18;0.90;;;0.70;;
68680;SDS011;55836;49.858;6.756;2022-12-31T00:30:44;0.50;;;0.50;;
68680;SDS011;55836;49.858;6.756;2022-12-31T00:33:09;0.87;;;0.50;;
68680;SDS011;55836;49.858;6.756;2022-12-31T00:35:36;0.63;;;0.50;;
68680;SDS011;55836;49.858;6.756;2022-12-31T00:38:02;4.00;;;0.50;;
68680;SDS011;55836;49.858;6.756;2022-12-31T00:40:28;0.40;;;0.40;;
68680;SDS011;55836;49.858;6.756;2022-12-31T00:42:54;1.33;;;0.50;;
68680;SDS011;55836;49.858;6.756;2022-12-31T00:45:20;0.50;;;0.50;;
68680;SDS011;55836;49.858;6.756;2022-12-31T00:47:46;0.90;;;0.43;;
68680;SDS011;55836;49.858;6.756;2022-12-31T00:50:12;0.40;;;0.40;;
68680;SDS011;55836;49.858;6.756;2022-12-31T00:52:38;0.40;;;0.40;;
68680;SDS011;55836;49.858;6.756;2022-12-31T00:55:04;0.50;;;0.50;;
68680;SDS011;55836;49.858;6.756;2022-12-31T00:57:30;0.40;;;0.40;;
68680;SDS011;55836;49.858;6.756;2022-12-31T00:59:56;0.50;;;0.50;;
68680;SDS011;55836;49.858;6.756;2022-12-31T01:02:22;0.50;;;0.50;;
68680;SDS011;55836;49.858;6.756;2022-12-31T01:04:48;0.80;;;0.80;;
68680;SDS011;55836;49.858;6.756;2022-12-31T01:07:14;1.47;;;0.60;;
68680;SDS011;55836;49.858;6.756;2022-12-31T01:09:40;1.40;;;1.30;;
68680;SDS011;55836;49.858;6.756;2022-12-31T01:12:06;0.83;;;0.83;;
68680;SDS011;55836;49.858;6.756;2022-12-31T01:14:32;1.43;;;1.03;;
68680;SDS011;55836;49.858;6.756;2022-12-31T01:16:58;1.40;;;1.27;;
68680;SDS011;55836;49.858;6.756;2022-12-31T01:19:26;2.33;;;1.23;;
68680;SDS011;55836;49.858;6.756;2022-12-31T01:21:52;2.53;;;1.67;;
68680;SDS011;55836;49.858;6.756;2022-12-31T01:24:19;2.27;;;1.57;;
68680;SDS011;55836;49.858;6.756;2022-12-31T01:26:45;2.93;;;1.33;;
68680;SDS011;55836;49.858;6.756;2022-12-31T01:29:11;5.87;;;2.27;;
68680;SDS011;55836;49.858;6.756;2022-12-31T01:31:37;5.20;;;1.83;;
68680;SDS011;55836;49.858;6.756;2022-12-31T01:34:04;2.57;;;1.20;;
68680;SDS011;55836;49.858;6.756;2022-12-31T01:36:30;4.37;;;1.70;;
68680;SDS011;55836;49.858;6.756;2022-12-31T01:38:57;2.63;;;1.40;;
68680;SDS011;55836;49.858;6.756;2022-12-31T01:41:28;2.93;;;1.37;;
68680;SDS011;55836;49.858;6.756;2022-12-31T01:43:59;1.80;;;1.40;;
68680;SDS011;55836;49.858;6.756;2022-12-31T01:46:47;2.03;;;1.10;;
68680;SDS011;55836;49.858;6.756;2022-12-31T01:49:14;1.73;;;1.20;;
68680;SDS011;55836;49.858;6.756;2022-12-31T01:51:42;2.87;;;1.23;;
68680;SDS011;55836;49.858;6.756;2022-12-31T01:54:09;4.57;;;1.70;;
68680;SDS011;55836;49.858;6.756;2022-12-31T01:56:37;5.50;;;1.47;;
68680;SDS011;55836;49.858;6.756;2022-12-31T01:59:04;1.77;;;1.20;;
68680;SDS011;55836;49.858;6.756;2022-12-31T02:01:31;2.53;;;1.40;;
68680;SDS011;55836;49.858;6.756;2022-12-31T02:03:57;4.97;;;1.33;;
68680;SDS011;55836;49.858;6.756;2022-12-31T02:06:30;5.50;;;1.60;;
68680;SDS011;55836;49.858;6.756;2022-12-31T02:08:57;1.80;;;1.30;;
68680;SDS011;55836;49.858;6.756;2022-12-31T02:11:30;2.60;;;1.13;;
68680;SDS011;55836;49.858;6.756;2022-12-31T02:14:00;2.43;;;1.13;;
68680;SDS011;55836;49.858;6.756;2022-12-31T02:27:12;3.10;;;1.40;;
68680;SDS011;55836;49.858;6.756;2022-12-31T02:32:33;4.90;;;1.47;;
68680;SDS011;55836;49.858;6.756;2022-12-31T02:35:08;5.70;;;2.67;;
68680;SDS011;55836;49.858;6.756;2022-12-31T02:37:37;2.67;;;1.50;;
68680;SDS011;55836;49.858;6.756;2022-12-31T02:40:05;2.03;;;1.27;;
68680;SDS011;55836;49.858;6.756;2022-12-31T02:42:32;2.77;;;1.30;;
68680;SDS011;55836;49.858;6.756;2022-12-31T02:44:58;4.47;;;1.40;;
68680;SDS011;55836;49.858;6.756;2022-12-31T02:48:01;1.97;;;1.57;;
68680;SDS011;55836;49.858;6.756;2022-12-31T02:53:12;1.77;;;1.50;;
68680;SDS011;55836;49.858;6.756;2022-12-31T03:01:08;3.50;;;1.63;;
68680;SDS011;55836;49.858;6.756;2022-12-31T03:03:53;2.10;;;1.57;;
68680;SDS011;55836;49.858;6.756;2022-12-31T03:06:39;1.97;;;1.40;;
68680;SDS011;55836;49.858;6.756;2022-12-31T03:09:05;3.53;;;1.73;;
68680;SDS011;55836;49.858;6.756;2022-12-31T03:11:37;1.83;;;1.37;;
68680;SDS011;55836;49.858;6.756;2022-12-31T03:14:22;1.47;;;1.30;;
68680;SDS011;55836;49.858;6.756;2022-12-31T03:16:48;3.33;;;1.63;;
68680;SDS011;55836;49.858;6.756;2022-12-31T03:19:14;3.63;;;1.50;;
68680;SDS011;55836;49.858;6.756;2022-12-31T03:21:58;1.93;;;1.40;;
68680;SDS011;55836;49.858;6.756;2022-12-31T03:24:43;4.87;;;1.87;;
68680;SDS011;55836;49.858;6.756;2022-12-31T03:27:28;3.53;;;1.70;;
68680;SDS011;55836;49.858;6.756;2022-12-31T03:29:54;4.50;;;1.90;;
68680;SDS011;55836;49.858;6.756;2022-12-31T03:32:20;2.43;;;1.30;;
68680;SDS011;55836;49.858;6.756;2022-12-31T03:34:46;3.03;;;1.77;;
68680;SDS011;55836;49.858;6.756;2022-12-31T03:37:12;3.50;;;1.60;;
68680;SDS011;55836;49.858;6.756;2022-12-31T03:39:38;3.23;;;1.47;;
68680;SDS011;55836;49.858;6.756;2022-12-31T03:42:04;3.03;;;1.73;;
68680;SDS011;55836;49.858;6.756;2022-12-31T03:44:30;8.77;;;1.83;;
68680;SDS011;55836;49.858;6.756;2022-12-31T03:46:56;3.77;;;1.80;;
68680;SDS011;55836;49.858;6.756;2022-12-31T03:49:22;5.03;;;1.87;;
68680;SDS011;55836;49.858;6.756;2022-12-31T03:51:48;5.00;;;1.60;;
68680;SDS011;55836;49.858;6.756;2022-12-31T03:54:14;5.97;;;1.73;;
68680;SDS011;55836;49.858;6.756;2022-12-31T03:56:40;3.50;;;2.03;;
68680;SDS011;55836;49.858;6.756;2022-12-31T03:59:06;3.00;;;1.40;;
68680;SDS011;55836;49.858;6.756;2022-12-31T04:01:32;3.57;;;1.83;;
68680;SDS011;55836;49.858;6.756;2022-12-31T04:03:58;4.57;;;1.80;;
68680;SDS011;55836;49.858;6.756;2022-12-31T04:06:24;3.43;;;1.63;;
68680;SDS011;55836;49.858;6.756;2022-12-31T04:08:50;3.30;;;1.90;;
68680;SDS011;55836;49.858;6.756;2022-12-31T04:11:16;4.43;;;2.37;;
68680;SDS011;55836;49.858;6.756;2022-12-31T04:13:42;4.97;;;1.90;;
68680;SDS011;55836;49.858;6.756;2022-12-31T04:16:08;5.03;;;2.10;;
68680;SDS011;55836;49.858;6.756;2022-12-31T04:18:34;6.87;;;2.70;;
68680;SDS011;55836;49.858;6.756;2022-12-31T04:21:01;3.67;;;1.90;;
68680;SDS011;55836;49.858;6.756;2022-12-31T04:23:27;4.70;;;2.40;;
68680;SDS011;55836;49.858;6.756;2022-12-31T04:25:53;5.43;;;2.23;;
68680;SDS011;55836;49.858;6.756;2022-12-31T04:28:19;5.93;;;2.80;;
68680;SDS011;55836;49.858;6.756;2022-12-31T04:30:45;4.63;;;1.90;;
68680;SDS011;55836;49.858;6.756;2022-12-31T04:33:11;2.80;;;1.93;;
68680;SDS011;55836;49.858;6.756;2022-12-31T04:35:37;3.73;;;2.10;;
68680;SDS011;55836;49.858;6.756;2022-12-31T04:38:03;3.07;;;2.10;;
68680;SDS011;55836;49.858;6.756;2022-12-31T04:40:29;4.70;;;2.10;;
68680;SDS011;55836;49.858;6.756;2022-12-31T04:42:55;5.10;;;1.90;;
68680;SDS011;55836;49.858;6.756;2022-12-31T04:45:21;4.60;;;2.63;;
68680;SDS011;55836;49.858;6.756;2022-12-31T04:47:47;4.13;;;1.90;;
68680;SDS011;55836;49.858;6.756;2022-12-31T04:50:13;4.57;;;1.90;;
68680;SDS011;55836;49.858;6.756;2022-12-31T04:52:39;3.07;;;2.00;;
68680;SDS011;55836;49.858;6.756;2022-12-31T04:55:05;3.03;;;1.57;;
68680;SDS011;55836;49.858;6.756;2022-12-31T04:57:31;3.10;;;1.60;;
68680;SDS011;55836;49.858;6.756;2022-12-31T04:59:57;3.73;;;1.90;;
68680;SDS011;55836;49.858;6.756;2022-12-31T05:02:23;4.83;;;2.10;;
68680;SDS011;55836;49.858;6.756;2022-12-31T05:04:49;3.30;;;1.70;;
68680;SDS011;55836;49.858;6.756;2022-12-31T05:07:15;5.07;;;1.90;;
68680;SDS011;55836;49.858;6.756;2022-12-31T05:09:41;3.13;;;2.03;;
68680;SDS011;55836;49.858;6.756;2022-12-31T05:12:07;5.63;;;2.13;;
68680;SDS011;55836;49.858;6.756;2022-12-31T05:14:33;4.93;;;3.07;;
68680;SDS011;55836;49.858;6.756;2022-12-31T05:16:59;2.67;;;2.03;;
68680;SDS011;55836;49.858;6.756;2022-12-31T05:19:25;3.40;;;1.87;;
68680;SDS011;55836;49.858;6.756;2022-12-31T05:21:51;2.17;;;1.90;;
68680;SDS011;55836;49.858;6.756;2022-12-31T05:24:36;4.43;;;1.90;;
68680;SDS011;55836;49.858;6.756;2022-12-31T05:27:02;2.80;;;1.87;;
68680;SDS011;55836;49.858;6.756;2022-12-31T05:29:28;3.43;;;1.63;;
68680;SDS011;55836;49.858;6.756;2022-12-31T05:31:54;5.53;;;2.00;;
68680;SDS011;55836;49.858;6.756;2022-12-31T05:34:20;3.80;;;1.97;;
68680;SDS011;55836;49.858;6.756;2022-12-31T05:36:46;3.10;;;1.93;;
68680;SDS011;55836;49.858;6.756;2022-12-31T05:39:12;3.60;;;2.00;;
68680;SDS011;55836;49.858;6.756;2022-12-31T05:41:38;1.70;;;1.40;;
68680;SDS011;55836;49.858;6.756;2022-12-31T05:44:04;4.40;;;1.60;;
68680;SDS011;55836;49.858;6.756;2022-12-31T05:46:30;2.97;;;1.43;;
68680;SDS011;55836;49.858;6.756;2022-12-31T05:48:56;4.50;;;1.80;;
68680;SDS011;55836;49.858;6.756;2022-12-31T05:51:22;3.10;;;1.80;;
68680;SDS011;55836;49.858;6.756;2022-12-31T05:53:48;1.93;;;1.37;;
68680;SDS011;55836;49.858;6.756;2022-12-31T05:56:14;1.87;;;1.37;;
68680;SDS011;55836;49.858;6.756;2022-12-31T05:58:41;3.77;;;1.57;;
68680;SDS011;55836;49.858;6.756;2022-12-31T06:01:07;1.70;;;1.60;;
68680;SDS011;55836;49.858;6.756;2022-12-31T06:03:33;3.87;;;1.23;;
68680;SDS011;55836;49.858;6.756;2022-12-31T06:05:59;4.50;;;1.40;;
68680;SDS011;55836;49.858;6.756;2022-12-31T06:08:25;3.33;;;1.30;;
68680;SDS011;55836;49.858;6.756;2022-12-31T06:10:51;3.07;;;1.40;;
68680;SDS011;55836;49.858;6.756;2022-12-31T06:13:17;1.80;;;1.40;;
68680;SDS011;55836;49.858;6.756;2022-12-31T06:15:43;2.60;;;1.47;;
68680;SDS011;55836;49.858;6.756;2022-12-31T06:18:09;2.00;;;1.40;;
68680;SDS011;55836;49.858;6.756;2022-12-31T06:20:36;6.47;;;1.40;;
68680;SDS011;55836;49.858;6.756;2022-12-31T06:23:02;3.03;;;1.60;;
68680;SDS011;55836;49.858;6.756;2022-12-31T06:25:28;4.33;;;1.40;;
68680;SDS011;55836;49.858;6.756;2022-12-31T06:27:54;2.53;;;1.40;;
68680;SDS011;55836;49.858;6.756;2022-12-31T06:30:20;1.50;;;1.30;;
68680;SDS011;55836;49.858;6.756;2022-12-31T06:32:46;2.87;;;1.40;;
68680;SDS011;55836;49.858;6.756;2022-12-31T06:35:12;2.73;;;1.57;;
68680;SDS011;55836;49.858;6.756;2022-12-31T06:37:38;1.77;;;1.47;;
68680;SDS011;55836;49.858;6.756;2022-12-31T06:40:05;2.87;;;1.10;;
68680;SDS011;55836;49.858;6.756;2022-12-31T06:42:31;5.90;;;1.23;;
68680;SDS011;55836;49.858;6.756;2022-12-31T06:44:57;4.43;;;1.70;;
68680;SDS011;55836;49.858;6.756;2022-12-31T06:47:23;4.03;;;2.13;;
68680;SDS011;55836;49.858;6.756;2022-12-31T06:49:50;5.77;;;1.43;;
68680;SDS011;55836;49.858;6.756;2022-12-31T06:52:17;2.37;;;1.40;;
68680;SDS011;55836;49.858;6.756;2022-12-31T06:54:43;3.07;;;1.27;;
68680;SDS011;55836;49.858;6.756;2022-12-31T06:57:09;4.37;;;1.40;;
68680;SDS011;55836;49.858;6.756;2022-12-31T06:59:35;3.40;;;1.50;;
68680;SDS011;55836;49.858;6.756;2022-12-31T07:07:03;1.50;;;1.40;;
68680;SDS011;55836;49.858;6.756;2022-12-31T07:14:51;2.10;;;1.37;;
68680;SDS011;55836;49.858;6.756;2022-12-31T07:17:31;1.40;;;1.30;;
68680;SDS011;55836;49.858;6.756;2022-12-31T07:20:05;2.53;;;1.50;;
68680;SDS011;55836;49.858;6.756;2022-12-31T07:22:32;3.67;;;1.77;;
68680;SDS011;55836;49.858;6.756;2022-12-31T07:24:58;2.20;;;1.50;;
68680;SDS011;55836;49.858;6.756;2022-12-31T07:37:30;4.97;;;2.00;;
68680;SDS011;55836;49.858;6.756;2022-12-31T07:43:03;3.03;;;1.80;;
68680;SDS011;55836;49.858;6.756;2022-12-31T07:45:35;3.00;;;1.60;;
68680;SDS011;55836;49.858;6.756;2022-12-31T07:48:02;3.47;;;1.80;;
68680;SDS011;55836;49.858;6.756;2022-12-31T07:50:28;5.00;;;1.80;;
68680;SDS011;55836;49.858;6.756;2022-12-31T07:52:55;1.73;;;1.40;;
68680;SDS011;55836;49.858;6.756;2022-12-31T07:55:21;3.27;;;1.40;;
68680;SDS011;55836;49.858;6.756;2022-12-31T08:00:39;1.63;;;1.53;;
68680;SDS011;55836;49.858;6.756;2022-12-31T08:06:09;4.60;;;1.60;;
68680;SDS011;55836;49.858;6.756;2022-12-31T08:11:55;5.00;;;1.50;;
68680;SDS011;55836;49.858;6.756;2022-12-31T08:14:13;2.17;;;1.53;;
68680;SDS011;55836;49.858;6.756;2022-12-31T08:16:39;3.93;;;1.63;;
68680;SDS011;55836;49.858;6.756;2022-12-31T08:19:06;2.67;;;1.70;;
68680;SDS011;55836;49.858;6.756;2022-12-31T08:26:51;3.43;;;1.80;;
68680;SDS011;55836;49.858;6.756;2022-12-31T08:34:31;2.77;;;1.67;;
68680;SDS011;55836;49.858;6.756;2022-12-31T08:37:34;3.17;;;1.53;;
68680;SDS011;55836;49.858;6.756;2022-12-31T08:42:26;4.87;;;1.73;;
68680;SDS011;55836;49.858;6.756;2022-12-31T08:50:16;3.73;;;1.63;;
68680;SDS011;55836;49.858;6.756;2022-12-31T08:52:42;3.00;;;2.27;;
68680;SDS011;55836;49.858;6.756;2022-12-31T08:55:15;2.83;;;1.70;;
68680;SDS011;55836;49.858;6.756;2022-12-31T09:00:13;5.17;;;1.60;;
68680;SDS011;55836;49.858;6.756;2022-12-31T09:07:38;3.43;;;1.67;;
68680;SDS011;55836;49.858;6.756;2022-12-31T09:13:14;3.30;;;2.00;;
68680;SDS011;55836;49.858;6.756;2022-12-31T09:15:36;2.93;;;2.13;;
68680;SDS011;55836;49.858;6.756;2022-12-31T09:18:07;3.40;;;1.90;;
68680;SDS011;55836;49.858;6.756;2022-12-31T09:20:35;3.03;;;1.67;;
68680;SDS011;55836;49.858;6.756;2022-12-31T09:23:02;3.73;;;1.70;;
68680;SDS011;55836;49.858;6.756;2022-12-31T09:25:28;3.37;;;1.77;;
68680;SDS011;55836;49.858;6.756;2022-12-31T09:30:26;4.53;;;1.87;;
68680;SDS011;55836;49.858;6.756;2022-12-31T09:32:56;3.80;;;1.60;;
68680;SDS011;55836;49.858;6.756;2022-12-31T09:35:35;3.87;;;1.97;;
68680;SDS011;55836;49.858;6.756;2022-12-31T09:40:49;3.47;;;1.53;;
68680;SDS011;55836;49.858;6.756;2022-12-31T09:59:01;3.57;;;1.50;;
68680;SDS011;55836;49.858;6.756;2022-12-31T10:07:07;3.33;;;1.63;;
68680;SDS011;55836;49.858;6.756;2022-12-31T10:12:23;3.27;;;1.60;;
68680;SDS011;55836;49.858;6.756;2022-12-31T10:15:03;1.90;;;1.70;;
68680;SDS011;55836;49.858;6.756;2022-12-31T10:17:38;3.33;;;1.70;;
68680;SDS011;55836;49.858;6.756;2022-12-31T10:20:14;5.10;;;1.57;;
68680;SDS011;55836;49.858;6.756;2022-12-31T10:22:48;3.83;;;1.70;;
68680;SDS011;55836;49.858;6.756;2022-12-31T10:27:51;6.30;;;1.80;;
68680;SDS011;55836;49.858;6.756;2022-12-31T10:30:20;3.60;;;1.37;;
68680;SDS011;55836;49.858;6.756;2022-12-31T10:33:06;2.83;;;2.20;;
68680;SDS011;55836;49.858;6.756;2022-12-31T11:35:54;3.63;;;1.23;;
68680;SDS011;55836;49.858;6.756;2022-12-31T11:38:28;3.37;;;1.50;;
68680;SDS011;55836;49.858;6.756;2022-12-31T11:41:12;2.17;;;1.30;;
68680;SDS011;55836;49.858;6.756;2022-12-31T11:49:13;3.50;;;1.40;;
68680;SDS011;55836;49.858;6.756;2022-12-31T11:52:05;6.07;;;2.10;;
68680;SDS011;55836;49.858;6.756;2022-12-31T11:57:12;3.10;;;1.23;;
68680;SDS011;55836;49.858;6.756;2022-12-31T11:59:40;2.07;;;1.30;;
68680;SDS011;55836;49.858;6.756;2022-12-31T12:04:45;3.70;;;1.47;;
68680;SDS011;55836;49.858;6.756;2022-12-31T12:07:13;2.23;;;1.50;;
68680;SDS011;55836;49.858;6.756;2022-12-31T12:09:40;1.47;;;1.30;;
68680;SDS011;55836;49.858;6.756;2022-12-31T12:12:08;2.77;;;1.60;;
68680;SDS011;55836;49.858;6.756;2022-12-31T12:14:36;4.17;;;2.27;;
68680;SDS011;55836;49.858;6.756;2022-12-31T12:17:04;3.53;;;2.30;;
68680;SDS011;55836;49.858;6.756;2022-12-31T12:19:31;5.17;;;2.67;;
68680;SDS011;55836;49.858;6.756;2022-12-31T12:21:58;2.83;;;1.50;;
68680;SDS011;55836;49.858;6.756;2022-12-31T12:24:33;2.57;;;1.43;;
68680;SDS011;55836;49.858;6.756;2022-12-31T12:26:59;3.43;;;2.07;;
68680;SDS011;55836;49.858;6.756;2022-12-31T12:29:27;1.40;;;1.30;;
68680;SDS011;55836;49.858;6.756;2022-12-31T12:34:24;3.17;;;1.40;;
68680;SDS011;55836;49.858;6.756;2022-12-31T12:36:50;1.93;;;1.27;;
68680;SDS011;55836;49.858;6.756;2022-12-31T12:39:23;3.00;;;1.23;;
68680;SDS011;55836;49.858;6.756;2022-12-31T12:41:59;2.20;;;1.30;;
68680;SDS011;55836;49.858;6.756;2022-12-31T12:44:25;3.87;;;1.50;;
68680;SDS011;55836;49.858;6.756;2022-12-31T12:46:52;3.50;;;1.70;;
68680;SDS011;55836;49.858;6.756;2022-12-31T12:49:20;3.53;;;1.40;;
68680;SDS011;55836;49.858;6.756;2022-12-31T13:02:02;3.47;;;2.07;;
68680;SDS011;55836;49.858;6.756;2022-12-31T13:04:40;4.93;;;2.03;;
68680;SDS011;55836;49.858;6.756;2022-12-31T13:09:41;3.20;;;1.50;;
68680;SDS011;55836;49.858;6.756;2022-12-31T13:14:53;4.37;;;2.27;;
68680;SDS011;55836;49.858;6.756;2022-12-31T13:17:31;3.10;;;1.97;;
68680;SDS011;55836;49.858;6.756;2022-12-31T13:22:42;1.87;;;1.73;;
68680;SDS011;55836;49.858;6.756;2022-12-31T13:27:36;1.77;;;1.47;;
68680;SDS011;55836;49.858;6.756;2022-12-31T13:30:11;2.80;;;1.70;;
68680;SDS011;55836;49.858;6.756;2022-12-31T13:32:39;3.10;;;1.63;;
68680;SDS011;55836;49.858;6.756;2022-12-31T13:35:20;5.23;;;2.13;;
68680;SDS011;55836;49.858;6.756;2022-12-31T13:37:47;3.73;;;1.93;;
68680;SDS011;55836;49.858;6.756;2022-12-31T13:40:33;2.23;;;1.47;;
68680;SDS011;55836;49.858;6.756;2022-12-31T13:43:02;2.10;;;1.70;;
68680;SDS011;55836;49.858;6.756;2022-12-31T13:45:31;6.60;;;3.73;;
68680;SDS011;55836;49.858;6.756;2022-12-31T13:48:33;5.23;;;3.40;;
68680;SDS011;55836;49.858;6.756;2022-12-31T13:50:59;2.90;;;2.43;;
68680;SDS011;55836;49.858;6.756;2022-12-31T13:53:30;5.13;;;3.07;;
68680;SDS011;55836;49.858;6.756;2022-12-31T13:55:57;4.83;;;2.40;;
68680;SDS011;55836;49.858;6.756;2022-12-31T13:58:37;4.27;;;2.30;;
68680;SDS011;55836;49.858;6.756;2022-12-31T14:01:12;6.63;;;2.57;;
68680;SDS011;55836;49.858;6.756;2022-12-31T14:08:32;4.13;;;2.20;;
68680;SDS011;55836;49.858;6.756;2022-12-31T14:16:23;2.87;;;2.67;;
68680;SDS011;55836;49.858;6.756;2022-12-31T14:19:01;3.43;;;2.10;;
68680;SDS011;55836;49.858;6.756;2022-12-31T14:24:06;4.97;;;2.00;;
68680;SDS011;55836;49.858;6.756;2022-12-31T14:26:36;4.10;;;1.80;;
68680;SDS011;55836;49.858;6.756;2022-12-31T14:34:32;3.20;;;1.50;;
68680;SDS011;55836;49.858;6.756;2022-12-31T14:39:31;3.93;;;2.00;;
68680;SDS011;55836;49.858;6.756;2022-12-31T14:44:28;3.77;;;2.33;;
68680;SDS011;55836;49.858;6.756;2022-12-31T14:49:42;4.53;;;1.97;;
68680;SDS011;55836;49.858;6.756;2022-12-31T14:54:59;4.37;;;2.80;;
68680;SDS011;55836;49.858;6.756;2022-12-31T14:57:33;3.10;;;2.80;;
68680;SDS011;55836;49.858;6.756;2022-12-31T15:00:00;6.73;;;5.23;;
68680;SDS011;55836;49.858;6.756;2022-12-31T15:02:31;9.87;;;4.13;;
68680;SDS011;55836;49.858;6.756;2022-12-31T15:05:32;3.80;;;2.00;;
68680;SDS011;55836;49.858;6.756;2022-12-31T15:13:04;3.67;;;2.87;;
68680;SDS011;55836;49.858;6.756;2022-12-31T15:15:40;4.87;;;3.03;;
68680;SDS011;55836;49.858;6.756;2022-12-31T15:23:23;3.77;;;2.20;;
68680;SDS011;55836;49.858;6.756;2022-12-31T15:25:58;4.07;;;2.60;;
68680;SDS011;55836;49.858;6.756;2022-12-31T15:28:28;3.40;;;2.40;;
68680;SDS011;55836;49.858;6.756;2022-12-31T15:30:57;3.60;;;2.40;;
68680;SDS011;55836;49.858;6.756;2022-12-31T15:33:35;2.83;;;2.20;;
68680;SDS011;55836;49.858;6.756;2022-12-31T15:36:18;4.20;;;2.90;;
68680;SDS011;55836;49.858;6.756;2022-12-31T15:38:44;5.57;;;2.80;;
68680;SDS011;55836;49.858;6.756;2022-12-31T15:41:13;3.73;;;2.20;;
68680;SDS011;55836;49.858;6.756;2022-12-31T15:43:39;4.53;;;3.07;;
68680;SDS011;55836;49.858;6.756;2022-12-31T15:46:30;4.13;;;2.60;;
68680;SDS011;55836;49.858;6.756;2022-12-31T15:51:31;3.93;;;3.40;;
68680;SDS011;55836;49.858;6.756;2022-12-31T15:53:58;4.93;;;2.10;;
68680;SDS011;55836;49.858;6.756;2022-12-31T15:58:53;6.93;;;2.50;;
68680;SDS011;55836;49.858;6.756;2022-12-31T16:01:21;5.30;;;2.10;;
68680;SDS011;55836;49.858;6.756;2022-12-31T16:03:53;3.57;;;2.20;;
68680;SDS011;55836;49.858;6.756;2022-12-31T16:06:20;3.53;;;2.60;;
68680;SDS011;55836;49.858;6.756;2022-12-31T16:08:47;4.67;;;2.20;;
68680;SDS011;55836;49.858;6.756;2022-12-31T16:11:13;3.63;;;2.50;;
68680;SDS011;55836;49.858;6.756;2022-12-31T16:13:43;4.40;;;2.80;;
68680;SDS011;55836;49.858;6.756;2022-12-31T16:16:24;4.80;;;2.47;;
68680;SDS011;55836;49.858;6.756;2022-12-31T16:18:51;4.93;;;3.43;;
68680;SDS011;55836;49.858;6.756;2022-12-31T16:21:33;7.57;;;4.30;;
68680;SDS011;55836;49.858;6.756;2022-12-31T16:24:00;7.73;;;5.33;;
68680;SDS011;55836;49.858;6.756;2022-12-31T16:26:29;6.90;;;4.67;;
68680;SDS011;55836;49.858;6.756;2022-12-31T16:28:56;5.07;;;3.70;;
68680;SDS011;55836;49.858;6.756;2022-12-31T16:31:26;5.33;;;3.40;;
68680;SDS011;55836;49.858;6.756;2022-12-31T16:34:03;5.37;;;3.37;;
68680;SDS011;55836;49.858;6.756;2022-12-31T16:36:29;5.07;;;3.20;;
68680;SDS011;55836;49.858;6.756;2022-12-31T16:39:04;4.10;;;3.37;;
68680;SDS011;55836;49.858;6.756;2022-12-31T16:41:42;4.23;;;2.57;;
68680;SDS011;55836;49.858;6.756;2022-12-31T16:44:19;6.37;;;3.90;;
68680;SDS011;55836;49.858;6.756;2022-12-31T16:46:48;5.37;;;3.30;;
68680;SDS011;55836;49.858;6.756;2022-12-31T16:49:17;4.23;;;3.33;;
68680;SDS011;55836;49.858;6.756;2022-12-31T16:51:45;3.63;;;2.70;;
68680;SDS011;55836;49.858;6.756;2022-12-31T16:54:18;3.97;;;2.60;;
68680;SDS011;55836;49.858;6.756;2022-12-31T16:56:45;4.77;;;3.57;;
68680;SDS011;55836;49.858;6.756;2022-12-31T16:59:13;3.17;;;2.77;;
68680;SDS011;55836;49.858;6.756;2022-12-31T17:01:44;7.33;;;3.90;;
68680;SDS011;55836;49.858;6.756;2022-12-31T17:04:11;8.83;;;4.60;;
68680;SDS011;55836;49.858;6.756;2022-12-31T17:06:40;10.73;;;6.00;;
68680;SDS011;55836;49.858;6.756;2022-12-31T17:09:14;6.57;;;5.10;;
68680;SDS011;55836;49.858;6.756;2022-12-31T17:14:21;12.73;;;9.85;;
68680;SDS011;55836;49.858;6.756;2022-12-31T17:22:01;4.43;;;2.33;;
68680;SDS011;55836;49.858;6.756;2022-12-31T17:24:27;5.17;;;2.80;;
68680;SDS011;55836;49.858;6.756;2022-12-31T17:26:54;15.37;;;10.40;;
68680;SDS011;55836;49.858;6.756;2022-12-31T17:29:26;5.20;;;3.20;;
68680;SDS011;55836;49.858;6.756;2022-12-31T17:32:02;2.70;;;2.43;;
68680;SDS011;55836;49.858;6.756;2022-12-31T17:34:33;6.17;;;3.77;;
68680;SDS011;55836;49.858;6.756;2022-12-31T17:39:37;5.37;;;2.67;;
68680;SDS011;55836;49.858;6.756;2022-12-31T17:42:04;4.63;;;2.47;;
68680;SDS011;55836;49.858;6.756;2022-12-31T17:44:30;4.77;;;2.90;;
68680;SDS011;55836;49.858;6.756;2022-12-31T17:46:58;3.90;;;2.70;;
68680;SDS011;55836;49.858;6.756;2022-12-31T17:49:29;7.57;;;3.00;;
68680;SDS011;55836;49.858;6.756;2022-12-31T17:51:55;4.67;;;2.17;;
68680;SDS011;55836;49.858;6.756;2022-12-31T17:54:22;3.23;;;2.53;;
68680;SDS011;55836;49.858;6.756;2022-12-31T17:56:48;3.63;;;3.07;;
68680;SDS011;55836;49.858;6.756;2022-12-31T17:59:21;3.53;;;2.80;;
68680;SDS011;55836;49.858;6.756;2022-12-31T18:01:48;4.10;;;2.17;;
68680;SDS011;55836;49.858;6.756;2022-12-31T18:04:15;2.17;;;2.00;;
68680;SDS011;55836;49.858;6.756;2022-12-31T18:06:42;4.47;;;2.30;;
68680;SDS011;55836;49.858;6.756;2022-12-31T18:09:08;6.87;;;2.77;;
68680;SDS011;55836;49.858;6.756;2022-12-31T18:11:35;4.30;;;3.13;;
68680;SDS011;55836;49.858;6.756;2022-12-31T18:14:01;5.67;;;3.37;;
68680;SDS011;55836;49.858;6.756;2022-12-31T18:16:28;5.37;;;2.60;;
68680;SDS011;55836;49.858;6.756;2022-12-31T18:18:58;4.00;;;1.83;;
68680;SDS011;55836;49.858;6.756;2022-12-31T18:21:25;4.63;;;2.20;;
68680;SDS011;55836;49.858;6.756;2022-12-31T18:23:52;5.47;;;2.50;;
68680;SDS011;55836;49.858;6.756;2022-12-31T18:26:19;3.20;;;2.17;;
68680;SDS011;55836;49.858;6.756;2022-12-31T18:28:46;3.00;;;2.20;;
68680;SDS011;55836;49.858;6.756;2022-12-31T18:31:13;5.40;;;2.53;;
68680;SDS011;55836;49.858;6.756;2022-12-31T18:33:41;3.70;;;2.20;;
68680;SDS011;55836;49.858;6.756;2022-12-31T18:36:11;6.03;;;2.60;;
68680;SDS011;55836;49.858;6.756;2022-12-31T18:38:38;4.27;;;2.97;;
68680;SDS011;55836;49.858;6.756;2022-12-31T18:41:04;7.83;;;3.33;;
68680;SDS011;55836;49.858;6.756;2022-12-31T18:43:31;7.10;;;2.70;;
68680;SDS011;55836;49.858;6.756;2022-12-31T18:45:57;3.93;;;2.03;;
68680;SDS011;55836;49.858;6.756;2022-12-31T18:48:23;2.80;;;2.07;;
68680;SDS011;55836;49.858;6.756;2022-12-31T18:50:49;5.00;;;2.20;;
68680;SDS011;55836;49.858;6.756;2022-12-31T18:53:17;2.90;;;2.40;;
68680;SDS011;55836;49.858;6.756;2022-12-31T18:55:47;4.70;;;2.10;;
68680;SDS011;55836;49.858;6.756;2022-12-31T18:58:13;3.27;;;1.93;;
68680;SDS011;55836;49.858;6.756;2022-12-31T19:00:39;3.90;;;2.63;;
68680;SDS011;55836;49.858;6.756;2022-12-31T19:03:08;4.53;;;2.73;;
68680;SDS011;55836;49.858;6.756;2022-12-31T19:05:37;7.23;;;3.57;;
68680;SDS011;55836;49.858;6.756;2022-12-31T19:08:03;7.70;;;4.93;;
68680;SDS011;55836;49.858;6.756;2022-12-31T19:10:29;6.43;;;4.13;;
68680;SDS011;55836;49.858;6.756;2022-12-31T19:12:55;6.13;;;3.23;;
68680;SDS011;55836;49.858;6.756;2022-12-31T19:15:23;5.30;;;2.47;;
68680;SDS011;55836;49.858;6.756;2022-12-31T19:17:50;6.23;;;2.40;;
68680;SDS011;55836;49.858;6.756;2022-12-31T19:20:16;5.67;;;2.50;;
68680;SDS011;55836;49.858;6.756;2022-12-31T19:22:43;4.73;;;2.20;;
68680;SDS011;55836;49.858;6.756;2022-12-31T19:27:47;4.43;;;2.13;;